sensor_id;sensor_type;location;lat;lon;timestamp;P1;durP1;ratioP1;P2;durP2;ratioP2
70549;SDS011;58101;48.658;2.328;2022-11-11T00:01:33;12.65;;;4.03;;
70549;SDS011;58101;48.658;2.328;2022-11-11T00:03:58;9.50;;;3.80;;
70549;SDS011;58101;48.658;2.328;2022-11-11T00:06:29;11.80;;;4.07;;
70549;SDS011;58101;48.658;2.328;2022-11-11T00:08:54;10.68;;;3.67;;
70549;SDS011;58101;48.658;2.328;2022-11-11T00:11:20;10.68;;;3.95;;
70549;SDS011;58101;48.658;2.328;2022-11-11T00:13:46;12.77;;;3.38;;
70549;SDS011;58101;48.658;2.328;2022-11-11T00:16:13;10.00;;;3.88;;
70549;SDS011;58101;48.658;2.328;2022-11-11T00:18:41;11.57;;;3.80;;
70549;SDS011;58101;48.658;2.328;2022-11-11T00:21:32;10.05;;;3.65;;
70549;SDS011;58101;48.658;2.328;2022-11-11T00:29:40;11.95;;;4.40;;
70549;SDS011;58101;48.658;2.328;2022-11-11T00:32:13;13.20;;;3.80;;
70549;SDS011;58101;48.658;2.328;2022-11-11T00:34:51;9.85;;;3.85;;
70549;SDS011;58101;48.658;2.328;2022-11-11T00:37:37;12.32;;;3.70;;
70549;SDS011;58101;48.658;2.328;2022-11-11T00:40:04;12.02;;;4.55;;
70549;SDS011;58101;48.658;2.328;2022-11-11T00:42:30;12.07;;;3.83;;
70549;SDS011;58101;48.658;2.328;2022-11-11T00:44:56;12.73;;;4.05;;
70549;SDS011;58101;48.658;2.328;2022-11-11T00:47:24;12.68;;;3.67;;
70549;SDS011;58101;48.658;2.328;2022-11-11T00:50:18;9.65;;;3.70;;
70549;SDS011;58101;48.658;2.328;2022-11-11T00:53:07;13.50;;;4.10;;
70549;SDS011;58101;48.658;2.328;2022-11-11T00:55:36;11.95;;;3.80;;
70549;SDS011;58101;48.658;2.328;2022-11-11T00:58:07;11.23;;;3.88;;
70549;SDS011;58101;48.658;2.328;2022-11-11T01:00:34;11.32;;;4.07;;
70549;SDS011;58101;48.658;2.328;2022-11-11T01:02:59;11.00;;;4.20;;
70549;SDS011;58101;48.658;2.328;2022-11-11T01:05:28;11.90;;;4.10;;
70549;SDS011;58101;48.658;2.328;2022-11-11T01:07:56;10.63;;;3.88;;
70549;SDS011;58101;48.658;2.328;2022-11-11T01:10:22;11.18;;;4.13;;
70549;SDS011;58101;48.658;2.328;2022-11-11T01:13:04;15.13;;;4.85;;
70549;SDS011;58101;48.658;2.328;2022-11-11T01:15:42;11.02;;;4.45;;
70549;SDS011;58101;48.658;2.328;2022-11-11T01:18:11;12.10;;;4.05;;
70549;SDS011;58101;48.658;2.328;2022-11-11T01:20:38;12.70;;;4.53;;
70549;SDS011;58101;48.658;2.328;2022-11-11T01:25:34;11.38;;;3.80;;
70549;SDS011;58101;48.658;2.328;2022-11-11T01:28:03;11.07;;;4.25;;
70549;SDS011;58101;48.658;2.328;2022-11-11T01:30:31;13.88;;;4.05;;
70549;SDS011;58101;48.658;2.328;2022-11-11T01:32:58;16.17;;;4.68;;
70549;SDS011;58101;48.658;2.328;2022-11-11T01:35:26;14.07;;;4.43;;
70549;SDS011;58101;48.658;2.328;2022-11-11T01:37:55;11.93;;;4.75;;
70549;SDS011;58101;48.658;2.328;2022-11-11T01:40:25;13.30;;;4.53;;
70549;SDS011;58101;48.658;2.328;2022-11-11T01:45:49;17.55;;;5.20;;
70549;SDS011;58101;48.658;2.328;2022-11-11T01:48:28;12.40;;;4.00;;
70549;SDS011;58101;48.658;2.328;2022-11-11T01:51:27;11.95;;;4.15;;
70549;SDS011;58101;48.658;2.328;2022-11-11T01:54:03;16.83;;;4.90;;
70549;SDS011;58101;48.658;2.328;2022-11-11T01:56:33;13.82;;;4.18;;
70549;SDS011;58101;48.658;2.328;2022-11-11T01:59:10;12.63;;;4.22;;
70549;SDS011;58101;48.658;2.328;2022-11-11T02:01:40;15.27;;;4.07;;
70549;SDS011;58101;48.658;2.328;2022-11-11T02:09:17;13.35;;;4.90;;
70549;SDS011;58101;48.658;2.328;2022-11-11T02:11:45;16.08;;;4.90;;
70549;SDS011;58101;48.658;2.328;2022-11-11T02:14:30;13.63;;;4.72;;
70549;SDS011;58101;48.658;2.328;2022-11-11T02:17:04;13.55;;;4.35;;
70549;SDS011;58101;48.658;2.328;2022-11-11T02:22:37;13.68;;;4.43;;
70549;SDS011;58101;48.658;2.328;2022-11-11T02:33:02;11.80;;;4.57;;
70549;SDS011;58101;48.658;2.328;2022-11-11T02:35:35;15.93;;;4.43;;
70549;SDS011;58101;48.658;2.328;2022-11-11T02:38:03;12.65;;;4.65;;
70549;SDS011;58101;48.658;2.328;2022-11-11T02:40:37;13.77;;;4.88;;
70549;SDS011;58101;48.658;2.328;2022-11-11T02:46:07;12.10;;;4.25;;
70549;SDS011;58101;48.658;2.328;2022-11-11T02:48:36;13.85;;;4.88;;
70549;SDS011;58101;48.658;2.328;2022-11-11T02:51:02;14.10;;;5.05;;
70549;SDS011;58101;48.658;2.328;2022-11-11T02:53:35;11.93;;;4.53;;
70549;SDS011;58101;48.658;2.328;2022-11-11T02:56:01;13.18;;;4.63;;
70549;SDS011;58101;48.658;2.328;2022-11-11T02:58:27;13.48;;;4.72;;
70549;SDS011;58101;48.658;2.328;2022-11-11T03:00:53;13.18;;;4.50;;
70549;SDS011;58101;48.658;2.328;2022-11-11T03:03:21;14.05;;;4.68;;
70549;SDS011;58101;48.658;2.328;2022-11-11T03:05:47;13.00;;;4.80;;
70549;SDS011;58101;48.658;2.328;2022-11-11T03:08:13;14.60;;;4.35;;
70549;SDS011;58101;48.658;2.328;2022-11-11T03:10:39;13.30;;;4.45;;
70549;SDS011;58101;48.658;2.328;2022-11-11T03:13:07;12.93;;;4.75;;
70549;SDS011;58101;48.658;2.328;2022-11-11T03:15:33;13.48;;;5.00;;
70549;SDS011;58101;48.658;2.328;2022-11-11T03:17:59;14.07;;;4.75;;
70549;SDS011;58101;48.658;2.328;2022-11-11T03:20:25;12.43;;;4.57;;
70549;SDS011;58101;48.658;2.328;2022-11-11T03:23:13;16.52;;;4.97;;
70549;SDS011;58101;48.658;2.328;2022-11-11T03:25:46;14.98;;;5.10;;
70549;SDS011;58101;48.658;2.328;2022-11-11T03:28:14;16.65;;;5.15;;
70549;SDS011;58101;48.658;2.328;2022-11-11T03:30:45;16.30;;;5.00;;
70549;SDS011;58101;48.658;2.328;2022-11-11T03:33:12;15.32;;;5.70;;
70549;SDS011;58101;48.658;2.328;2022-11-11T03:38:11;14.95;;;4.63;;
70549;SDS011;58101;48.658;2.328;2022-11-11T03:40:46;19.33;;;5.15;;
70549;SDS011;58101;48.658;2.328;2022-11-11T03:43:15;13.73;;;4.30;;
70549;SDS011;58101;48.658;2.328;2022-11-11T03:45:42;12.65;;;4.60;;
70549;SDS011;58101;48.658;2.328;2022-11-11T03:48:09;14.13;;;4.63;;
70549;SDS011;58101;48.658;2.328;2022-11-11T03:50:37;15.02;;;4.95;;
70549;SDS011;58101;48.658;2.328;2022-11-11T03:53:03;11.90;;;4.40;;
70549;SDS011;58101;48.658;2.328;2022-11-11T03:55:32;12.10;;;3.85;;
70549;SDS011;58101;48.658;2.328;2022-11-11T03:57:58;14.10;;;4.78;;
70549;SDS011;58101;48.658;2.328;2022-11-11T04:00:25;12.55;;;4.85;;
70549;SDS011;58101;48.658;2.328;2022-11-11T04:02:59;12.43;;;4.13;;
70549;SDS011;58101;48.658;2.328;2022-11-11T04:05:50;12.48;;;4.57;;
70549;SDS011;58101;48.658;2.328;2022-11-11T04:08:28;15.73;;;4.40;;
70549;SDS011;58101;48.658;2.328;2022-11-11T04:11:26;15.52;;;4.93;;
70549;SDS011;58101;48.658;2.328;2022-11-11T04:13:54;16.38;;;5.28;;
70549;SDS011;58101;48.658;2.328;2022-11-11T04:16:42;14.60;;;4.70;;
70549;SDS011;58101;48.658;2.328;2022-11-11T04:19:10;14.32;;;4.65;;
70549;SDS011;58101;48.658;2.328;2022-11-11T04:21:54;13.95;;;4.55;;
70549;SDS011;58101;48.658;2.328;2022-11-11T04:24:23;14.15;;;4.65;;
70549;SDS011;58101;48.658;2.328;2022-11-11T04:27:11;14.05;;;5.32;;
70549;SDS011;58101;48.658;2.328;2022-11-11T04:29:39;22.90;;;8.20;;
70549;SDS011;58101;48.658;2.328;2022-11-11T04:32:09;20.48;;;6.90;;
70549;SDS011;58101;48.658;2.328;2022-11-11T04:34:58;21.75;;;7.47;;
70549;SDS011;58101;48.658;2.328;2022-11-11T04:37:48;15.90;;;5.65;;
70549;SDS011;58101;48.658;2.328;2022-11-11T04:40:39;10.93;;;4.20;;
70549;SDS011;58101;48.658;2.328;2022-11-11T04:43:23;12.02;;;3.92;;
70549;SDS011;58101;48.658;2.328;2022-11-11T04:45:52;13.80;;;4.70;;
70549;SDS011;58101;48.658;2.328;2022-11-11T04:48:18;23.52;;;7.40;;
70549;SDS011;58101;48.658;2.328;2022-11-11T04:50:45;21.52;;;7.05;;
70549;SDS011;58101;48.658;2.328;2022-11-11T04:55:52;14.32;;;5.15;;
70549;SDS011;58101;48.658;2.328;2022-11-11T04:58:36;14.70;;;5.00;;
70549;SDS011;58101;48.658;2.328;2022-11-11T05:01:02;11.70;;;4.18;;
70549;SDS011;58101;48.658;2.328;2022-11-11T05:03:32;12.93;;;3.70;;
70549;SDS011;58101;48.658;2.328;2022-11-11T05:05:59;11.82;;;3.70;;
70549;SDS011;58101;48.658;2.328;2022-11-11T05:13:59;9.60;;;3.67;;
70549;SDS011;58101;48.658;2.328;2022-11-11T05:16:49;15.93;;;5.35;;
70549;SDS011;58101;48.658;2.328;2022-11-11T05:19:40;17.95;;;5.53;;
70549;SDS011;58101;48.658;2.328;2022-11-11T05:22:32;19.70;;;6.97;;
70549;SDS011;58101;48.658;2.328;2022-11-11T05:25:09;10.50;;;3.85;;
70549;SDS011;58101;48.658;2.328;2022-11-11T05:27:54;13.57;;;4.32;;
70549;SDS011;58101;48.658;2.328;2022-11-11T05:30:21;10.68;;;3.85;;
70549;SDS011;58101;48.658;2.328;2022-11-11T05:32:48;10.63;;;3.72;;
70549;SDS011;58101;48.658;2.328;2022-11-11T05:35:17;13.23;;;4.43;;
70549;SDS011;58101;48.658;2.328;2022-11-11T05:37:43;14.75;;;4.20;;
70549;SDS011;58101;48.658;2.328;2022-11-11T05:40:29;11.75;;;3.90;;
70549;SDS011;58101;48.658;2.328;2022-11-11T05:42:54;13.07;;;3.80;;
70549;SDS011;58101;48.658;2.328;2022-11-11T05:45:20;11.88;;;4.00;;
70549;SDS011;58101;48.658;2.328;2022-11-11T05:47:49;10.45;;;3.45;;
70549;SDS011;58101;48.658;2.328;2022-11-11T05:55:33;10.93;;;3.45;;
70549;SDS011;58101;48.658;2.328;2022-11-11T05:58:04;12.00;;;3.53;;
70549;SDS011;58101;48.658;2.328;2022-11-11T06:00:32;10.63;;;3.50;;
70549;SDS011;58101;48.658;2.328;2022-11-11T06:03:02;10.00;;;3.10;;
70549;SDS011;58101;48.658;2.328;2022-11-11T06:05:28;8.38;;;3.20;;
70549;SDS011;58101;48.658;2.328;2022-11-11T06:07:56;11.05;;;3.38;;
70549;SDS011;58101;48.658;2.328;2022-11-11T06:10:22;10.50;;;3.40;;
70549;SDS011;58101;48.658;2.328;2022-11-11T06:12:57;8.65;;;3.17;;
70549;SDS011;58101;48.658;2.328;2022-11-11T06:15:28;11.65;;;3.60;;
70549;SDS011;58101;48.658;2.328;2022-11-11T06:18:01;11.73;;;3.67;;
70549;SDS011;58101;48.658;2.328;2022-11-11T06:20:27;9.43;;;3.25;;
70549;SDS011;58101;48.658;2.328;2022-11-11T06:22:54;11.80;;;3.75;;
70549;SDS011;58101;48.658;2.328;2022-11-11T06:25:20;10.60;;;3.10;;
70549;SDS011;58101;48.658;2.328;2022-11-11T06:28:05;8.80;;;3.33;;
70549;SDS011;58101;48.658;2.328;2022-11-11T06:30:34;10.95;;;3.40;;
70549;SDS011;58101;48.658;2.328;2022-11-11T06:32:59;9.40;;;3.00;;
70549;SDS011;58101;48.658;2.328;2022-11-11T06:35:28;9.30;;;3.35;;
70549;SDS011;58101;48.658;2.328;2022-11-11T06:37:54;11.57;;;3.33;;
70549;SDS011;58101;48.658;2.328;2022-11-11T06:40:19;9.35;;;3.10;;
70549;SDS011;58101;48.658;2.328;2022-11-11T06:42:45;9.80;;;3.33;;
70549;SDS011;58101;48.658;2.328;2022-11-11T06:45:11;12.10;;;3.28;;
70549;SDS011;58101;48.658;2.328;2022-11-11T06:47:42;10.45;;;3.25;;
70549;SDS011;58101;48.658;2.328;2022-11-11T06:50:11;11.65;;;3.50;;
70549;SDS011;58101;48.658;2.328;2022-11-11T06:52:36;9.95;;;3.97;;
70549;SDS011;58101;48.658;2.328;2022-11-11T06:55:02;8.93;;;3.25;;
70549;SDS011;58101;48.658;2.328;2022-11-11T06:57:30;10.60;;;3.72;;
70549;SDS011;58101;48.658;2.328;2022-11-11T06:59:56;10.40;;;3.83;;
70549;SDS011;58101;48.658;2.328;2022-11-11T07:02:22;13.93;;;5.03;;
70549;SDS011;58101;48.658;2.328;2022-11-11T07:04:47;11.38;;;3.33;;
70549;SDS011;58101;48.658;2.328;2022-11-11T07:07:13;9.27;;;3.13;;
70549;SDS011;58101;48.658;2.328;2022-11-11T07:09:41;10.02;;;3.50;;
70549;SDS011;58101;48.658;2.328;2022-11-11T07:15:54;9.40;;;3.42;;
70549;SDS011;58101;48.658;2.328;2022-11-11T07:18:40;11.02;;;3.65;;
70549;SDS011;58101;48.658;2.328;2022-11-11T07:21:06;10.50;;;3.80;;
70549;SDS011;58101;48.658;2.328;2022-11-11T07:23:32;11.18;;;4.18;;
70549;SDS011;58101;48.658;2.328;2022-11-11T07:25:57;10.73;;;3.90;;
70549;SDS011;58101;48.658;2.328;2022-11-11T07:31:44;10.77;;;3.88;;
70549;SDS011;58101;48.658;2.328;2022-11-11T07:34:09;10.95;;;3.70;;
70549;SDS011;58101;48.658;2.328;2022-11-11T07:36:44;11.35;;;3.65;;
70549;SDS011;58101;48.658;2.328;2022-11-11T07:39:10;12.27;;;3.45;;
70549;SDS011;58101;48.658;2.328;2022-11-11T07:41:35;11.40;;;3.60;;
70549;SDS011;58101;48.658;2.328;2022-11-11T07:44:01;17.75;;;5.95;;
70549;SDS011;58101;48.658;2.328;2022-11-11T07:46:26;14.70;;;4.72;;
70549;SDS011;58101;48.658;2.328;2022-11-11T07:48:52;17.50;;;6.20;;
70549;SDS011;58101;48.658;2.328;2022-11-11T07:51:18;16.38;;;5.70;;
70549;SDS011;58101;48.658;2.328;2022-11-11T07:56:32;16.75;;;6.25;;
70549;SDS011;58101;48.658;2.328;2022-11-11T07:58:58;11.00;;;3.63;;
70549;SDS011;58101;48.658;2.328;2022-11-11T08:01:23;14.60;;;5.30;;
70549;SDS011;58101;48.658;2.328;2022-11-11T08:03:49;15.05;;;6.25;;
70549;SDS011;58101;48.658;2.328;2022-11-11T08:06:16;12.02;;;4.13;;
70549;SDS011;58101;48.658;2.328;2022-11-11T08:08:42;13.07;;;3.97;;
70549;SDS011;58101;48.658;2.328;2022-11-11T08:11:07;12.90;;;3.85;;
70549;SDS011;58101;48.658;2.328;2022-11-11T08:13:39;10.88;;;3.67;;
70549;SDS011;58101;48.658;2.328;2022-11-11T08:16:10;15.27;;;5.25;;
70549;SDS011;58101;48.658;2.328;2022-11-11T08:18:36;13.88;;;5.00;;
70549;SDS011;58101;48.658;2.328;2022-11-11T08:21:03;17.08;;;6.93;;
70549;SDS011;58101;48.658;2.328;2022-11-11T08:23:29;12.70;;;4.10;;
70549;SDS011;58101;48.658;2.328;2022-11-11T08:28:25;13.10;;;4.53;;
70549;SDS011;58101;48.658;2.328;2022-11-11T08:30:52;12.82;;;3.97;;
70549;SDS011;58101;48.658;2.328;2022-11-11T08:33:18;8.80;;;3.35;;
70549;SDS011;58101;48.658;2.328;2022-11-11T08:35:44;10.57;;;3.40;;
70549;SDS011;58101;48.658;2.328;2022-11-11T08:38:09;12.85;;;3.90;;
70549;SDS011;58101;48.658;2.328;2022-11-11T08:40:37;10.13;;;3.22;;
70549;SDS011;58101;48.658;2.328;2022-11-11T08:46:16;11.73;;;3.85;;
70549;SDS011;58101;48.658;2.328;2022-11-11T08:48:42;10.77;;;3.63;;
70549;SDS011;58101;48.658;2.328;2022-11-11T08:51:07;10.52;;;3.50;;
70549;SDS011;58101;48.658;2.328;2022-11-11T08:56:55;14.57;;;3.95;;
70549;SDS011;58101;48.658;2.328;2022-11-11T08:59:20;11.05;;;4.00;;
70549;SDS011;58101;48.658;2.328;2022-11-11T09:01:46;14.13;;;4.28;;
70549;SDS011;58101;48.658;2.328;2022-11-11T09:04:12;11.90;;;4.47;;
70549;SDS011;58101;48.658;2.328;2022-11-11T09:06:37;12.93;;;4.55;;
70549;SDS011;58101;48.658;2.328;2022-11-11T09:09:05;11.90;;;4.03;;
70549;SDS011;58101;48.658;2.328;2022-11-11T09:12:08;22.13;;;8.45;;
70549;SDS011;58101;48.658;2.328;2022-11-11T09:14:34;12.68;;;4.28;;
70549;SDS011;58101;48.658;2.328;2022-11-11T09:16:59;12.98;;;4.20;;
70549;SDS011;58101;48.658;2.328;2022-11-11T09:19:25;14.20;;;4.68;;
70549;SDS011;58101;48.658;2.328;2022-11-11T09:21:51;12.48;;;4.45;;
70549;SDS011;58101;48.658;2.328;2022-11-11T09:24:17;13.15;;;4.95;;
70549;SDS011;58101;48.658;2.328;2022-11-11T09:27:01;11.13;;;5.68;;
70549;SDS011;58101;48.658;2.328;2022-11-11T09:29:27;10.27;;;3.90;;
70549;SDS011;58101;48.658;2.328;2022-11-11T09:31:52;12.05;;;3.90;;
70549;SDS011;58101;48.658;2.328;2022-11-11T09:34:33;8.55;;;3.33;;
70549;SDS011;58101;48.658;2.328;2022-11-11T09:40:23;12.00;;;3.80;;
70549;SDS011;58101;48.658;2.328;2022-11-11T09:51:50;10.43;;;3.53;;
70549;SDS011;58101;48.658;2.328;2022-11-11T10:06:52;10.30;;;3.20;;
70549;SDS011;58101;48.658;2.328;2022-11-11T10:09:40;7.90;;;2.85;;
70549;SDS011;58101;48.658;2.328;2022-11-11T10:12:14;11.00;;;3.53;;
70549;SDS011;58101;48.658;2.328;2022-11-11T10:17:28;11.57;;;3.40;;
70549;SDS011;58101;48.658;2.328;2022-11-11T10:22:42;11.00;;;4.40;;
70549;SDS011;58101;48.658;2.328;2022-11-11T10:27:39;9.73;;;3.47;;
70549;SDS011;58101;48.658;2.328;2022-11-11T10:30:28;12.15;;;3.80;;
70549;SDS011;58101;48.658;2.328;2022-11-11T10:32:56;12.10;;;3.20;;
70549;SDS011;58101;48.658;2.328;2022-11-11T10:35:26;10.85;;;3.22;;
70549;SDS011;58101;48.658;2.328;2022-11-11T10:43:20;11.43;;;3.60;;
70549;SDS011;58101;48.658;2.328;2022-11-11T10:48:33;10.82;;;3.75;;
70549;SDS011;58101;48.658;2.328;2022-11-11T10:54:25;9.80;;;3.50;;
70549;SDS011;58101;48.658;2.328;2022-11-11T10:57:00;12.75;;;3.40;;
70549;SDS011;58101;48.658;2.328;2022-11-11T10:59:34;10.43;;;3.35;;
70549;SDS011;58101;48.658;2.328;2022-11-11T11:02:08;9.65;;;3.38;;
70549;SDS011;58101;48.658;2.328;2022-11-11T11:04:48;11.10;;;4.00;;
70549;SDS011;58101;48.658;2.328;2022-11-11T11:07:25;10.00;;;4.15;;
70549;SDS011;58101;48.658;2.328;2022-11-11T11:10:02;11.98;;;4.40;;
70549;SDS011;58101;48.658;2.328;2022-11-11T11:15:03;11.82;;;3.50;;
70549;SDS011;58101;48.658;2.328;2022-11-11T11:17:36;11.35;;;3.70;;
70549;SDS011;58101;48.658;2.328;2022-11-11T11:22:43;9.55;;;3.40;;
70549;SDS011;58101;48.658;2.328;2022-11-11T11:25:17;8.90;;;2.90;;
70549;SDS011;58101;48.658;2.328;2022-11-11T11:27:44;8.48;;;3.05;;
70549;SDS011;58101;48.658;2.328;2022-11-11T11:35:43;11.52;;;4.28;;
70549;SDS011;58101;48.658;2.328;2022-11-11T11:38:10;9.00;;;3.83;;
70549;SDS011;58101;48.658;2.328;2022-11-11T12:04:55;10.70;;;4.45;;
70549;SDS011;58101;48.658;2.328;2022-11-11T12:07:42;11.93;;;3.50;;
70549;SDS011;58101;48.658;2.328;2022-11-11T12:10:19;8.25;;;3.53;;
70549;SDS011;58101;48.658;2.328;2022-11-11T12:21:15;8.70;;;2.90;;
70549;SDS011;58101;48.658;2.328;2022-11-11T12:32:40;9.25;;;3.05;;
70549;SDS011;58101;48.658;2.328;2022-11-11T12:40:50;8.95;;;3.28;;
70549;SDS011;58101;48.658;2.328;2022-11-11T12:57:11;8.85;;;3.65;;
70549;SDS011;58101;48.658;2.328;2022-11-11T13:00:02;10.05;;;2.72;;
70549;SDS011;58101;48.658;2.328;2022-11-11T13:15:26;11.57;;;3.10;;
70549;SDS011;58101;48.658;2.328;2022-11-11T13:24:37;8.93;;;2.83;;
70549;SDS011;58101;48.658;2.328;2022-11-11T13:27:10;7.35;;;2.78;;
70549;SDS011;58101;48.658;2.328;2022-11-11T13:33:08;9.00;;;3.20;;
70549;SDS011;58101;48.658;2.328;2022-11-11T13:38:46;10.85;;;3.00;;
70549;SDS011;58101;48.658;2.328;2022-11-11T13:44:48;9.82;;;3.40;;
70549;SDS011;58101;48.658;2.328;2022-11-11T13:47:26;10.25;;;3.65;;
70549;SDS011;58101;48.658;2.328;2022-11-11T13:50:05;10.77;;;3.55;;
70549;SDS011;58101;48.658;2.328;2022-11-11T13:52:37;9.35;;;3.30;;
70549;SDS011;58101;48.658;2.328;2022-11-11T13:58:01;7.95;;;3.10;;
70549;SDS011;58101;48.658;2.328;2022-11-11T14:00:35;9.52;;;3.40;;
70549;SDS011;58101;48.658;2.328;2022-11-11T14:05:44;10.68;;;3.17;;
70549;SDS011;58101;48.658;2.328;2022-11-11T14:08:42;7.35;;;2.65;;
70549;SDS011;58101;48.658;2.328;2022-11-11T14:11:32;7.85;;;2.42;;
70549;SDS011;58101;48.658;2.328;2022-11-11T14:14:45;7.78;;;2.75;;
70549;SDS011;58101;48.658;2.328;2022-11-11T14:16:57;11.02;;;2.97;;
70549;SDS011;58101;48.658;2.328;2022-11-11T14:27:04;6.88;;;2.58;;
70549;SDS011;58101;48.658;2.328;2022-11-11T14:34:53;10.18;;;3.40;;
70549;SDS011;58101;48.658;2.328;2022-11-11T14:40:31;11.98;;;2.97;;
70549;SDS011;58101;48.658;2.328;2022-11-11T14:42:58;8.48;;;2.78;;
70549;SDS011;58101;48.658;2.328;2022-11-11T14:54:00;8.65;;;2.42;;
70549;SDS011;58101;48.658;2.328;2022-11-11T14:56:28;8.63;;;2.45;;
70549;SDS011;58101;48.658;2.328;2022-11-11T14:58:55;7.75;;;2.45;;
70549;SDS011;58101;48.658;2.328;2022-11-11T15:01:30;8.10;;;2.50;;
70549;SDS011;58101;48.658;2.328;2022-11-11T15:03:59;11.00;;;3.08;;
70549;SDS011;58101;48.658;2.328;2022-11-11T15:09:53;11.23;;;3.22;;
70549;SDS011;58101;48.658;2.328;2022-11-11T15:12:55;8.63;;;3.00;;
70549;SDS011;58101;48.658;2.328;2022-11-11T15:15:41;7.93;;;2.75;;
70549;SDS011;58101;48.658;2.328;2022-11-11T15:32:11;8.93;;;2.90;;
70549;SDS011;58101;48.658;2.328;2022-11-11T15:34:58;15.18;;;5.22;;
70549;SDS011;58101;48.658;2.328;2022-11-11T15:37:37;14.43;;;6.35;;
70549;SDS011;58101;48.658;2.328;2022-11-11T15:40:02;9.82;;;4.70;;
70549;SDS011;58101;48.658;2.328;2022-11-11T15:44:58;10.70;;;4.88;;
70549;SDS011;58101;48.658;2.328;2022-11-11T15:47:26;9.88;;;3.83;;
70549;SDS011;58101;48.658;2.328;2022-11-11T15:49:54;10.07;;;3.50;;
70549;SDS011;58101;48.658;2.328;2022-11-11T15:54:51;11.50;;;4.45;;
70549;SDS011;58101;48.658;2.328;2022-11-11T15:59:53;10.52;;;3.55;;
70549;SDS011;58101;48.658;2.328;2022-11-11T16:02:21;8.90;;;3.80;;
70549;SDS011;58101;48.658;2.328;2022-11-11T16:04:53;10.23;;;4.20;;
70549;SDS011;58101;48.658;2.328;2022-11-11T16:07:26;12.00;;;3.90;;
70549;SDS011;58101;48.658;2.328;2022-11-11T16:10:04;12.00;;;3.80;;
70549;SDS011;58101;48.658;2.328;2022-11-11T16:12:41;9.77;;;4.18;;
70549;SDS011;58101;48.658;2.328;2022-11-11T16:15:24;12.02;;;4.38;;
70549;SDS011;58101;48.658;2.328;2022-11-11T16:18:13;10.82;;;3.63;;
70549;SDS011;58101;48.658;2.328;2022-11-11T16:20:50;9.68;;;3.70;;
70549;SDS011;58101;48.658;2.328;2022-11-11T16:23:30;10.25;;;3.90;;
70549;SDS011;58101;48.658;2.328;2022-11-11T16:25:57;12.68;;;3.65;;
70549;SDS011;58101;48.658;2.328;2022-11-11T16:28:25;10.52;;;3.80;;
70549;SDS011;58101;48.658;2.328;2022-11-11T16:30:53;10.15;;;3.85;;
70549;SDS011;58101;48.658;2.328;2022-11-11T16:38:31;11.00;;;4.30;;
70549;SDS011;58101;48.658;2.328;2022-11-11T16:40:57;9.63;;;3.80;;
70549;SDS011;58101;48.658;2.328;2022-11-11T16:43:24;10.20;;;4.00;;
70549;SDS011;58101;48.658;2.328;2022-11-11T16:46:07;9.57;;;3.90;;
70549;SDS011;58101;48.658;2.328;2022-11-11T16:48:40;11.45;;;4.85;;
70549;SDS011;58101;48.658;2.328;2022-11-11T16:51:23;17.05;;;7.28;;
70549;SDS011;58101;48.658;2.328;2022-11-11T16:54:20;48.05;;;15.18;;
70549;SDS011;58101;48.658;2.328;2022-11-11T16:56:52;62.85;;;22.88;;
70549;SDS011;58101;48.658;2.328;2022-11-11T16:59:40;57.47;;;23.20;;
70549;SDS011;58101;48.658;2.328;2022-11-11T17:02:18;40.33;;;16.50;;
70549;SDS011;58101;48.658;2.328;2022-11-11T17:04:50;28.63;;;11.82;;
70549;SDS011;58101;48.658;2.328;2022-11-11T17:07:35;23.35;;;10.48;;
70549;SDS011;58101;48.658;2.328;2022-11-11T17:10:13;22.00;;;9.27;;
70549;SDS011;58101;48.658;2.328;2022-11-11T17:12:40;18.23;;;8.30;;
70549;SDS011;58101;48.658;2.328;2022-11-11T17:15:07;17.83;;;7.60;;
70549;SDS011;58101;48.658;2.328;2022-11-11T17:17:38;17.60;;;7.00;;
70549;SDS011;58101;48.658;2.328;2022-11-11T17:20:12;14.23;;;6.32;;
70549;SDS011;58101;48.658;2.328;2022-11-11T17:22:49;15.23;;;6.60;;
70549;SDS011;58101;48.658;2.328;2022-11-11T17:25:16;15.68;;;7.78;;
70549;SDS011;58101;48.658;2.328;2022-11-11T17:27:42;21.55;;;9.25;;
70549;SDS011;58101;48.658;2.328;2022-11-11T17:30:09;23.08;;;12.77;;
70549;SDS011;58101;48.658;2.328;2022-11-11T17:32:39;32.42;;;15.68;;
70549;SDS011;58101;48.658;2.328;2022-11-11T17:35:07;40.03;;;18.38;;
70549;SDS011;58101;48.658;2.328;2022-11-11T17:40:33;48.88;;;21.52;;
70549;SDS011;58101;48.658;2.328;2022-11-11T17:42:59;46.70;;;22.33;;
70549;SDS011;58101;48.658;2.328;2022-11-11T17:45:24;47.53;;;22.73;;
70549;SDS011;58101;48.658;2.328;2022-11-11T17:47:52;38.08;;;17.95;;
70549;SDS011;58101;48.658;2.328;2022-11-11T17:50:19;36.97;;;17.10;;
70549;SDS011;58101;48.658;2.328;2022-11-11T17:52:44;36.85;;;18.13;;
70549;SDS011;58101;48.658;2.328;2022-11-11T17:55:10;36.85;;;17.85;;
70549;SDS011;58101;48.658;2.328;2022-11-11T17:57:38;32.10;;;17.17;;
70549;SDS011;58101;48.658;2.328;2022-11-11T18:00:04;37.38;;;18.38;;
70549;SDS011;58101;48.658;2.328;2022-11-11T18:02:30;34.85;;;18.20;;
70549;SDS011;58101;48.658;2.328;2022-11-11T18:04:56;33.13;;;17.13;;
70549;SDS011;58101;48.658;2.328;2022-11-11T18:08:22;35.90;;;16.98;;
70549;SDS011;58101;48.658;2.328;2022-11-11T18:11:03;33.85;;;16.73;;
70549;SDS011;58101;48.658;2.328;2022-11-11T18:13:38;31.25;;;16.52;;
70549;SDS011;58101;48.658;2.328;2022-11-11T18:16:04;32.78;;;16.83;;
70549;SDS011;58101;48.658;2.328;2022-11-11T18:18:30;35.22;;;16.95;;
70549;SDS011;58101;48.658;2.328;2022-11-11T18:21:03;29.20;;;16.23;;
70549;SDS011;58101;48.658;2.328;2022-11-11T18:23:33;30.02;;;15.23;;
70549;SDS011;58101;48.658;2.328;2022-11-11T18:26:00;29.13;;;15.02;;
70549;SDS011;58101;48.658;2.328;2022-11-11T18:28:33;31.67;;;16.27;;
70549;SDS011;58101;48.658;2.328;2022-11-11T18:34:19;34.22;;;16.50;;
70549;SDS011;58101;48.658;2.328;2022-11-11T18:36:44;36.20;;;19.15;;
70549;SDS011;58101;48.658;2.328;2022-11-11T18:39:10;34.85;;;17.80;;
70549;SDS011;58101;48.658;2.328;2022-11-11T18:41:46;30.80;;;16.25;;
70549;SDS011;58101;48.658;2.328;2022-11-11T18:56:27;35.95;;;17.52;;
70549;SDS011;58101;48.658;2.328;2022-11-11T18:58:55;36.65;;;19.15;;
70549;SDS011;58101;48.658;2.328;2022-11-11T19:15:42;36.85;;;21.48;;
70549;SDS011;58101;48.658;2.328;2022-11-11T19:18:27;41.50;;;21.65;;
70549;SDS011;58101;48.658;2.328;2022-11-11T19:31:30;37.53;;;18.02;;
70549;SDS011;58101;48.658;2.328;2022-11-11T19:33:57;33.78;;;18.48;;
70549;SDS011;58101;48.658;2.328;2022-11-11T19:36:23;32.03;;;17.50;;
70549;SDS011;58101;48.658;2.328;2022-11-11T19:39:08;32.42;;;16.02;;
70549;SDS011;58101;48.658;2.328;2022-11-11T19:41:34;33.30;;;17.20;;
70549;SDS011;58101;48.658;2.328;2022-11-11T19:43:59;36.83;;;18.95;;
70549;SDS011;58101;48.658;2.328;2022-11-11T19:46:26;38.47;;;19.73;;
70549;SDS011;58101;48.658;2.328;2022-11-11T19:51:29;41.13;;;20.33;;
70549;SDS011;58101;48.658;2.328;2022-11-11T19:54:01;49.83;;;23.55;;
70549;SDS011;58101;48.658;2.328;2022-11-11T19:56:30;47.75;;;23.95;;
70549;SDS011;58101;48.658;2.328;2022-11-11T19:58:56;44.97;;;23.00;;
70549;SDS011;58101;48.658;2.328;2022-11-11T20:01:23;38.70;;;20.50;;
70549;SDS011;58101;48.658;2.328;2022-11-11T20:04:03;37.85;;;19.60;;
70549;SDS011;58101;48.658;2.328;2022-11-11T20:06:39;37.05;;;19.25;;
70549;SDS011;58101;48.658;2.328;2022-11-11T20:09:07;40.33;;;21.33;;
70549;SDS011;58101;48.658;2.328;2022-11-11T20:11:39;40.40;;;21.27;;
70549;SDS011;58101;48.658;2.328;2022-11-11T20:16:59;35.85;;;18.67;;
70549;SDS011;58101;48.658;2.328;2022-11-11T20:19:37;31.70;;;17.42;;